Time;durP1;ratioP1;P1;durP2;ratioP2;P2;SDS_P1;SDS_P2;PMS_P1;PMS_P2;Temp;Humidity;BMP_temperature;BMP_pressure;BME280_temperature;BME280_humidity;BME280_pressure;Samples;Min_cycle;Max_cycle;Signal;HPM_P1;HPM_P2
2022/03/15 00:01:03;;;;;;;20.73;7.32;;;3.20;99.90;;;;;;5111077;27;20157;-83
2022/03/15 00:03:31;;;;;;;21.15;6.95;;;3.10;99.90;;;;;;5113732;27;20118;-83
2022/03/15 00:05:58;;;;;;;19.65;6.30;;;3.10;99.90;;;;;;5145962;27;20126;-83
2022/03/15 00:08:26;;;;;;;17.75;6.32;;;3.20;99.90;;;;;;5108901;27;20176;-83
2022/03/15 00:10:57;;;;;;;19.10;6.72;;;4.10;99.90;;;;;;5123707;27;20110;-83
2022/03/15 00:13:28;;;;;;;18.42;6.70;;;3.20;99.90;;;;;;5108862;27;20081;-83
2022/03/15 00:15:55;;;;;;;25.33;6.90;;;3.20;99.90;;;;;;5145532;27;20054;-83
2022/03/15 00:18:20;;;;;;;16.25;6.47;;;3.20;99.90;;;;;;5124679;27;20311;-82
2022/03/15 00:20:46;;;;;;;21.88;7.13;;;3.10;99.90;;;;;;5112550;27;20517;-83
2022/03/15 00:23:12;;;;;;;21.48;7.60;;;3.10;99.90;;;;;;5124636;27;20039;-83
2022/03/15 00:25:38;;;;;;;25.90;7.45;;;3.10;99.90;;;;;;5110806;27;20034;-83
2022/03/15 00:28:07;;;;;;;19.85;6.32;;;3.20;99.90;;;;;;5128766;27;20067;-83
2022/03/15 00:30:32;;;;;;;17.50;6.25;;;3.10;99.90;;;;;;5113555;27;20046;-83
2022/03/15 00:32:58;;;;;;;19.20;6.65;;;3.00;99.90;;;;;;5111131;27;20083;-83
2022/03/15 00:35:25;;;;;;;17.33;6.45;;;3.10;99.90;;;;;;5126208;27;20153;-82
2022/03/15 00:37:53;;;;;;;18.15;6.70;;;3.90;99.90;;;;;;5112821;27;20368;-83
2022/03/15 00:40:20;;;;;;;24.70;7.28;;;3.10;99.90;;;;;;5127243;27;20057;-83
2022/03/15 00:42:52;;;;;;;14.98;5.95;;;3.00;99.90;;;;;;5126657;27;20031;-83
2022/03/15 00:45:22;;;;;;;14.32;6.63;;;3.00;99.90;;;;;;5109028;27;20042;-83
2022/03/15 00:47:49;;;;;;;19.55;6.07;;;3.00;99.90;;;;;;5121574;27;20038;-83
2022/03/15 00:50:14;;;;;;;17.98;6.90;;;3.70;99.90;;;;;;5101388;27;20046;-83
2022/03/15 00:52:40;;;;;;;21.67;7.97;;;3.00;99.90;;;;;;5107205;27;20088;-83
2022/03/15 00:55:07;;;;;;;23.90;7.88;;;3.00;99.90;;;;;;5141683;27;20086;-83
2022/03/15 00:57:34;;;;;;;19.85;7.00;;;3.00;99.90;;;;;;5120035;27;20046;-83
2022/03/15 01:00:05;;;;;;;30.30;8.65;;;3.00;99.90;;;;;;5106426;27;20046;-83
2022/03/15 01:02:31;;;;;;;22.75;7.38;;;3.00;99.90;;;;;;5140318;27;20035;-83
2022/03/15 01:04:57;;;;;;;21.35;7.03;;;3.00;99.90;;;;;;5121636;27;20045;-83
2022/03/15 01:07:22;;;;;;;20.05;7.68;;;3.00;99.90;;;;;;5144542;27;20073;-83
2022/03/15 01:09:48;;;;;;;29.38;8.25;;;3.00;99.90;;;;;;5123824;27;20050;-83
2022/03/15 01:12:14;;;;;;;23.63;8.02;;;3.00;99.90;;;;;;5146037;27;20054;-83
2022/03/15 01:14:40;;;;;;;28.35;8.32;;;3.00;99.90;;;;;;5106038;27;20050;-83
2022/03/15 01:17:06;;;;;;;29.95;8.75;;;3.10;99.90;;;;;;5103089;27;20496;-83
2022/03/15 01:19:32;;;;;;;21.38;7.47;;;3.10;99.90;;;;;;5144397;27;20070;-83
2022/03/15 01:21:58;;;;;;;30.40;8.75;;;3.10;99.90;;;;;;5107600;27;20042;-83
2022/03/15 01:24:24;;;;;;;30.58;8.95;;;3.10;99.90;;;;;;5106389;27;20045;-83
2022/03/15 01:26:54;;;;;;;21.50;8.38;;;3.20;99.90;;;;;;5141156;27;20057;-83
2022/03/15 01:29:20;;;;;;;30.08;9.30;;;3.20;99.90;;;;;;5107858;27;20079;-83
2022/03/15 01:31:47;;;;;;;22.13;8.57;;;3.20;99.90;;;;;;5121542;27;20042;-83
2022/03/15 01:34:16;;;;;;;22.25;8.32;;;3.20;99.90;;;;;;5123366;27;20057;-83
2022/03/15 01:36:41;;;;;;;26.55;9.38;;;3.20;99.90;;;;;;5108451;27;20445;-83
2022/03/15 01:39:07;;;;;;;24.77;9.25;;;3.20;99.90;;;;;;5104736;27;20046;-83
2022/03/15 01:41:38;;;;;;;22.38;7.93;;;3.10;99.90;;;;;;5145687;27;20042;-83
2022/03/15 01:44:26;;;;;;;20.17;7.63;;;3.20;99.90;;;;;;5138942;27;20102;-83
2022/03/15 01:46:54;;;;;;;21.10;8.40;;;3.20;99.90;;;;;;5120200;27;20074;-83
2022/03/15 01:49:20;;;;;;;21.08;7.65;;;3.20;99.90;;;;;;5137506;27;20049;-83
2022/03/15 01:51:47;;;;;;;27.10;8.93;;;3.20;99.90;;;;;;5116806;27;20518;-82
2022/03/15 01:54:14;;;;;;;24.75;8.45;;;3.10;99.90;;;;;;5104720;27;20043;-82
2022/03/15 01:56:43;;;;;;;23.08;8.98;;;3.20;99.90;;;;;;5116229;27;20113;-83
2022/03/15 01:59:14;;;;;;;39.75;11.02;;;3.20;99.90;;;;;;5113509;27;20518;-82
2022/03/15 02:01:41;;;;;;;30.77;10.40;;;3.20;99.90;;;;;;5114498;27;20142;-84
2022/03/15 02:04:11;;;;;;;29.30;10.77;;;3.20;99.90;;;;;;5097101;27;20070;-82
2022/03/15 02:06:38;;;;;;;30.45;12.02;;;3.20;99.90;;;;;;5111359;27;21527;-83
2022/03/15 02:09:12;;;;;;;27.85;11.23;;;3.30;99.90;;;;;;5117246;27;20131;-82
2022/03/15 02:11:39;;;;;;;29.55;11.93;;;3.30;99.90;;;;;;5130469;27;20043;-82
2022/03/15 02:14:05;;;;;;;25.45;11.63;;;3.40;99.90;;;;;;5126186;27;20049;-83
2022/03/15 02:16:31;;;;;;;30.52;11.38;;;3.40;99.90;;;;;;5127055;27;20050;-83
2022/03/15 02:18:58;;;;;;;29.40;12.93;;;3.40;99.90;;;;;;5097179;27;20154;-83
2022/03/15 02:21:25;;;;;;;35.58;13.75;;;3.50;99.90;;;;;;5099587;27;20043;-83
2022/03/15 02:23:51;;;;;;;29.67;12.18;;;3.50;99.90;;;;;;5123895;27;20047;-83
2022/03/15 02:26:16;;;;;;;34.13;12.45;;;3.60;99.90;;;;;;5139970;27;20053;-83
2022/03/15 02:28:43;;;;;;;27.80;13.32;;;3.60;99.90;;;;;;5123420;27;20148;-83
2022/03/15 02:31:10;;;;;;;29.73;11.43;;;3.60;99.90;;;;;;5105793;27;20197;-83
2022/03/15 02:33:35;;;;;;;26.33;11.45;;;3.70;99.90;;;;;;5120497;27;20528;-82
2022/03/15 02:36:01;;;;;;;37.75;12.38;;;3.70;99.90;;;;;;5121200;27;20122;-82
2022/03/15 02:38:27;;;;;;;38.47;13.38;;;3.70;99.90;;;;;;5119876;27;20057;-83
2022/03/15 02:40:53;;;;;;;30.73;12.80;;;3.80;99.90;;;;;;5106362;27;20117;-83
2022/03/15 02:43:18;;;;;;;28.50;13.02;;;3.80;99.90;;;;;;5145036;27;20459;-83
2022/03/15 02:45:44;;;;;;;32.70;12.93;;;3.90;99.90;;;;;;5125705;27;20039;-82
2022/03/15 02:48:10;;;;;;;35.35;12.75;;;3.90;99.90;;;;;;5125527;27;20546;-83
2022/03/15 02:50:38;;;;;;;34.80;12.02;;;4.00;99.90;;;;;;5126287;27;20049;-82
2022/03/15 02:53:08;;;;;;;32.28;13.25;;;5.00;99.90;;;;;;5143024;27;21486;-82
2022/03/15 02:55:34;;;;;;;39.97;13.32;;;4.10;99.90;;;;;;5109257;27;20078;-82
2022/03/15 02:58:00;;;;;;;33.10;12.50;;;4.10;99.90;;;;;;5126198;27;20031;-83
2022/03/15 03:00:27;;;;;;;32.47;13.07;;;4.20;99.90;;;;;;5124935;27;20043;-82
2022/03/15 03:02:56;;;;;;;28.95;12.73;;;4.20;99.90;;;;;;5105834;27;20509;-82
2022/03/15 03:05:23;;;;;;;27.15;11.98;;;4.30;99.90;;;;;;5123988;27;20046;-82
2022/03/15 03:07:49;;;;;;;35.08;12.30;;;4.70;99.90;;;;;;5125717;27;20038;-82
2022/03/15 03:10:16;;;;;;;27.40;11.52;;;4.30;99.90;;;;;;5147197;27;20066;-82
2022/03/15 03:12:48;;;;;;;28.90;11.45;;;4.30;99.90;;;;;;5114106;27;20061;-82
2022/03/15 03:15:15;;;;;;;31.52;11.75;;;4.40;99.90;;;;;;5118503;27;20505;-83
2022/03/15 03:17:41;;;;;;;23.33;11.30;;;4.40;99.90;;;;;;5112614;27;20047;-82
2022/03/15 03:20:12;;;;;;;32.90;12.63;;;4.40;99.90;;;;;;5097302;27;20132;-83
2022/03/15 03:22:39;;;;;;;27.92;12.68;;;4.40;99.90;;;;;;5115337;27;20126;-81
2022/03/15 03:25:06;;;;;;;30.83;12.32;;;4.50;99.90;;;;;;5117367;27;20095;-83
2022/03/15 03:27:32;;;;;;;29.98;12.85;;;4.50;99.90;;;;;;5118408;27;20043;-83
2022/03/15 03:29:59;;;;;;;33.45;12.93;;;4.50;99.90;;;;;;5104803;27;20035;-83
2022/03/15 03:32:26;;;;;;;33.45;13.38;;;4.50;99.90;;;;;;5129926;27;20043;-83
2022/03/15 03:34:52;;;;;;;31.75;13.00;;;4.60;99.90;;;;;;5125373;27;20035;-82
2022/03/15 03:37:18;;;;;;;30.13;13.50;;;4.60;99.90;;;;;;5126325;27;20054;-83
2022/03/15 03:39:44;;;;;;;31.45;12.63;;;4.60;99.90;;;;;;5122864;27;20127;-83
2022/03/15 03:42:10;;;;;;;28.75;14.20;;;4.70;99.90;;;;;;5144178;27;20507;-83
2022/03/15 03:44:37;;;;;;;33.65;14.75;;;4.70;99.90;;;;;;5145200;27;20068;-82
2022/03/15 03:47:04;;;;;;;33.70;14.40;;;4.80;99.90;;;;;;5125296;27;20042;-82
2022/03/15 03:49:31;;;;;;;34.28;14.02;;;4.80;99.90;;;;;;5122538;27;20063;-82
2022/03/15 03:51:57;;;;;;;36.20;13.07;;;4.80;99.90;;;;;;5108232;27;20042;-83
2022/03/15 03:54:24;;;;;;;33.22;14.32;;;4.90;99.90;;;;;;5122691;27;20050;-82
2022/03/15 03:56:50;;;;;;;34.95;14.50;;;4.90;99.90;;;;;;5122804;27;20470;-82
2022/03/15 03:59:17;;;;;;;41.40;16.27;;;4.90;99.90;;;;;;5144853;27;20464;-82
2022/03/15 04:01:45;;;;;;;33.58;15.13;;;4.90;99.90;;;;;;5103525;27;20235;-82
2022/03/15 04:04:11;;;;;;;36.55;15.45;;;5.00;99.90;;;;;;5147280;27;20418;-82
2022/03/15 04:06:41;;;;;;;43.47;16.02;;;5.10;99.90;;;;;;5121083;27;20035;-82
2022/03/15 04:09:11;;;;;;;33.38;15.07;;;5.10;99.90;;;;;;5109493;27;20088;-82
2022/03/15 04:11:41;;;;;;;39.33;16.67;;;5.10;99.90;;;;;;5121005;27;20034;-82
2022/03/15 04:14:10;;;;;;;36.65;15.70;;;5.10;99.90;;;;;;5118781;27;20042;-82
2022/03/15 04:16:37;;;;;;;36.22;15.82;;;5.10;99.90;;;;;;5107840;27;20051;-83
2022/03/15 04:19:04;;;;;;;32.10;15.63;;;5.20;99.90;;;;;;5105202;27;20475;-82
2022/03/15 04:21:30;;;;;;;33.70;16.38;;;5.20;99.90;;;;;;5104637;27;20039;-82
2022/03/15 04:23:56;;;;;;;36.88;17.30;;;5.30;99.90;;;;;;5124659;27;20451;-82
2022/03/15 04:26:23;;;;;;;35.63;16.02;;;5.30;99.90;;;;;;5109116;27;20039;-82
2022/03/15 04:28:49;;;;;;;38.70;16.38;;;6.30;99.90;;;;;;5103687;27;20039;-82
2022/03/15 04:31:15;;;;;;;36.60;17.45;;;5.40;99.90;;;;;;5108336;27;20518;-83
2022/03/15 04:33:41;;;;;;;36.55;18.08;;;5.40;99.90;;;;;;5106823;27;20042;-83
2022/03/15 04:36:07;;;;;;;37.75;16.25;;;5.40;99.90;;;;;;5105017;27;20056;-82
2022/03/15 04:38:36;;;;;;;39.28;16.75;;;5.50;99.90;;;;;;5139690;27;20047;-83
2022/03/15 04:41:05;;;;;;;39.72;17.15;;;5.40;99.90;;;;;;5107530;27;20038;-83
2022/03/15 04:43:31;;;;;;;36.30;17.10;;;5.50;99.90;;;;;;5130835;27;20071;-83
2022/03/15 04:45:58;;;;;;;39.03;16.55;;;5.50;99.90;;;;;;5110606;27;20039;-83
2022/03/15 04:48:23;;;;;;;39.95;17.67;;;5.50;99.90;;;;;;5114943;27;20045;-83
2022/03/15 04:50:50;;;;;;;39.58;17.85;;;5.90;99.90;;;;;;5114045;27;20039;-82
2022/03/15 04:53:16;;;;;;;42.13;17.88;;;5.50;99.90;;;;;;5129634;27;20161;-82
2022/03/15 04:55:42;;;;;;;40.08;18.60;;;5.50;99.90;;;;;;5092996;27;20219;-82
2022/03/15 04:58:08;;;;;;;35.92;18.52;;;5.60;99.90;;;;;;5138940;27;20635;-83
2022/03/15 05:00:34;;;;;;;38.97;18.02;;;5.60;99.90;;;;;;5113971;27;20041;-83
2022/03/15 05:03:00;;;;;;;42.63;19.13;;;5.90;99.90;;;;;;5128905;27;20099;-82
2022/03/15 05:05:25;;;;;;;41.92;18.13;;;5.60;99.90;;;;;;5094081;27;20461;-82
2022/03/15 05:07:51;;;;;;;35.67;18.58;;;5.60;99.90;;;;;;5131415;27;20091;-83
2022/03/15 05:13:01;;;;;;;39.50;17.67;;;5.60;99.90;;;;;;5130783;27;20093;-82
2022/03/15 05:15:27;;;;;;;38.65;17.92;;;5.60;99.90;;;;;;5096017;27;20146;-83
2022/03/15 05:17:53;;;;;;;39.35;17.85;;;5.60;99.90;;;;;;5127093;27;20043;-82
2022/03/15 05:20:19;;;;;;;38.75;17.27;;;5.50;99.90;;;;;;5099253;27;20103;-83
2022/03/15 05:22:45;;;;;;;42.47;17.50;;;5.60;99.90;;;;;;5133017;27;20823;-83
2022/03/15 05:25:13;;;;;;;44.67;17.70;;;5.50;99.90;;;;;;5102709;27;20038;-83
2022/03/15 05:27:40;;;;;;;45.00;18.35;;;5.50;99.90;;;;;;5125205;27;20042;-82
2022/03/15 05:30:06;;;;;;;43.20;17.45;;;5.50;99.90;;;;;;5102938;27;20039;-82
2022/03/15 05:32:32;;;;;;;41.55;18.88;;;5.50;99.90;;;;;;5114315;27;20047;-82
2022/03/15 05:34:58;;;;;;;42.05;18.52;;;5.50;99.90;;;;;;5112828;27;20059;-82
2022/03/15 05:37:24;;;;;;;32.60;18.15;;;5.50;99.90;;;;;;5118218;27;20061;-82
2022/03/15 05:39:50;;;;;;;37.13;18.30;;;5.50;99.90;;;;;;5121270;27;20030;-82
2022/03/15 05:42:17;;;;;;;38.70;18.30;;;5.50;99.90;;;;;;5100558;27;20766;-82
2022/03/15 05:44:46;;;;;;;43.17;19.35;;;5.40;99.90;;;;;;5104014;27;20051;-82
2022/03/15 05:47:12;;;;;;;36.28;17.23;;;5.40;99.90;;;;;;5124480;27;20507;-83
2022/03/15 05:49:38;;;;;;;40.22;18.10;;;5.40;99.90;;;;;;5103074;27;20054;-82
2022/03/15 05:52:08;;;;;;;41.13;18.42;;;5.40;99.90;;;;;;5121649;27;20756;-82
2022/03/15 05:54:36;;;;;;;38.17;17.60;;;5.50;99.90;;;;;;5138963;27;20554;-83
2022/03/15 05:57:02;;;;;;;40.92;20.02;;;5.50;99.90;;;;;;5113425;27;20042;-83
2022/03/15 05:59:28;;;;;;;41.92;17.90;;;5.50;99.90;;;;;;5093897;27;20091;-82
2022/03/15 06:01:54;;;;;;;37.72;18.83;;;5.50;99.90;;;;;;5121757;27;20043;-82
2022/03/15 06:04:21;;;;;;;41.97;19.58;;;5.50;99.90;;;;;;5106704;27;20095;-82
2022/03/15 06:06:47;;;;;;;39.75;18.75;;;5.50;99.90;;;;;;5102840;27;20042;-82
2022/03/15 06:09:12;;;;;;;40.83;18.40;;;5.50;99.90;;;;;;5125262;27;20499;-83
2022/03/15 06:11:39;;;;;;;42.08;18.83;;;5.50;99.90;;;;;;5145418;27;20149;-83
2022/03/15 06:14:05;;;;;;;40.03;17.95;;;5.80;99.90;;;;;;5128489;27;20051;-83
2022/03/15 06:16:31;;;;;;;41.15;18.92;;;5.50;99.90;;;;;;5128098;27;20426;-83
2022/03/15 06:18:56;;;;;;;45.75;18.83;;;5.50;99.90;;;;;;5149397;27;20042;-82
2022/03/15 06:21:23;;;;;;;34.92;17.75;;;5.50;99.90;;;;;;5129871;27;20035;-83
2022/03/15 06:23:51;;;;;;;35.58;18.20;;;5.50;99.90;;;;;;5148313;27;20432;-82
2022/03/15 06:26:20;;;;;;;34.75;17.58;;;6.30;99.90;;;;;;5119861;27;20037;-84
2022/03/15 06:28:46;;;;;;;36.97;17.67;;;5.60;99.90;;;;;;5115846;27;20047;-83
2022/03/15 06:31:14;;;;;;;43.70;18.50;;;5.60;99.90;;;;;;5112468;27;20088;-83
2022/03/15 06:33:41;;;;;;;36.78;16.83;;;6.00;99.90;;;;;;5129087;27;20073;-84
2022/03/15 06:36:11;;;;;;;32.55;17.65;;;5.60;99.90;;;;;;5127119;27;20057;-83
2022/03/15 06:38:41;;;;;;;41.00;18.23;;;6.30;99.90;;;;;;5115408;27;20134;-84
2022/03/15 06:41:08;;;;;;;37.95;17.50;;;6.50;99.90;;;;;;5104969;27;20109;-83
2022/03/15 06:43:34;;;;;;;36.85;18.13;;;5.60;99.90;;;;;;5115268;27;20039;-83
2022/03/15 06:46:00;;;;;;;37.22;17.77;;;5.60;99.90;;;;;;5091734;27;20045;-83
2022/03/15 06:48:26;;;;;;;36.17;17.15;;;5.70;99.90;;;;;;5093915;27;20042;-82
2022/03/15 06:50:53;;;;;;;41.15;18.70;;;5.70;99.90;;;;;;5104549;27;20079;-83
2022/03/15 06:53:19;;;;;;;40.15;18.30;;;5.80;99.90;;;;;;5092376;27;20078;-81
2022/03/15 06:55:44;;;;;;;38.40;18.08;;;5.80;99.90;;;;;;5104030;27;20292;-82
2022/03/15 06:58:10;;;;;;;34.13;16.98;;;6.00;99.90;;;;;;5071381;27;21859;-82
2022/03/15 07:00:42;;;;;;;40.35;18.63;;;5.80;99.90;;;;;;5109645;27;20039;-83
2022/03/15 07:03:08;;;;;;;39.40;18.25;;;6.70;99.90;;;;;;5119830;27;20169;-83
2022/03/15 07:05:35;;;;;;;37.40;17.27;;;6.50;99.90;;;;;;5135500;27;20047;-83
2022/03/15 07:08:01;;;;;;;39.30;17.27;;;6.50;99.90;;;;;;5098936;27;20461;-84
2022/03/15 07:10:28;;;;;;;37.67;17.67;;;5.80;99.90;;;;;;5124278;27;20055;-83
2022/03/15 07:12:54;;;;;;;33.67;16.80;;;5.80;99.90;;;;;;5128199;27;20069;-83
2022/03/15 07:15:51;;;;;;;29.55;16.55;;;6.20;99.90;;;;;;5130857;27;20070;-83
2022/03/15 07:18:18;;;;;;;32.28;16.25;;;5.80;99.90;;;;;;5107651;27;20755;-83
2022/03/15 07:20:49;;;;;;;38.75;16.08;;;6.20;99.90;;;;;;5127583;27;20031;-83
2022/03/15 07:23:27;;;;;;;36.00;17.67;;;7.20;99.90;;;;;;5144554;27;20444;-83
2022/03/15 07:26:01;;;;;;;32.65;16.10;;;6.00;99.90;;;;;;5104169;27;20075;-83
2022/03/15 07:28:27;;;;;;;30.15;16.08;;;6.00;99.90;;;;;;5124856;27;20067;-83
2022/03/15 07:30:53;;;;;;;36.75;16.92;;;6.10;99.90;;;;;;5126537;27;20522;-83
2022/03/15 07:33:19;;;;;;;37.42;18.08;;;6.10;99.90;;;;;;5142660;27;20127;-83
2022/03/15 07:35:47;;;;;;;34.80;18.23;;;6.80;99.90;;;;;;5110152;27;20047;-83
2022/03/15 07:38:17;;;;;;;35.05;17.52;;;6.40;99.90;;;;;;5129220;27;20047;-83
2022/03/15 07:40:48;;;;;;;40.45;19.85;;;6.10;99.90;;;;;;5119895;27;20065;-83
2022/03/15 07:43:14;;;;;;;41.72;19.02;;;7.00;99.90;;;;;;5127490;27;20081;-83
2022/03/15 07:45:40;;;;;;;35.75;19.05;;;6.10;99.90;;;;;;5121594;27;20095;-83
2022/03/15 07:48:24;;;;;;;37.80;19.92;;;6.20;99.90;;;;;;5121452;27;20113;-83
2022/03/15 07:51:16;;;;;;;36.85;19.33;;;6.60;99.90;;;;;;5118301;27;20074;-83
2022/03/15 07:53:45;;;;;;;39.97;19.58;;;6.20;99.90;;;;;;5107750;27;20125;-83
2022/03/15 07:56:14;;;;;;;42.05;21.30;;;6.90;99.90;;;;;;5143788;27;20118;-85
2022/03/15 07:58:51;;;;;;;39.38;21.10;;;5.50;99.90;;;;;;5125704;27;20388;-84
2022/03/15 08:01:17;;;;;;;38.65;21.05;;;6.30;99.90;;;;;;5125670;27;20053;-88
2022/03/15 08:03:43;;;;;;;49.72;22.98;;;6.40;99.90;;;;;;5145094;27;20039;-87
2022/03/15 08:10:22;;;;;;;44.80;20.98;;;6.90;99.90;;;;;;5077384;28;20039;-87
2022/03/15 08:13:42;;;;;;;44.53;21.95;;;6.40;99.90;;;;;;5065741;28;20466;-87
2022/03/15 08:16:08;;;;;;;45.38;22.17;;;6.40;99.90;;;;;;5082315;28;20050;-87
2022/03/15 08:18:34;;;;;;;39.22;22.40;;;7.10;99.90;;;;;;5069759;28;20068;-87
2022/03/15 08:21:00;;;;;;;43.25;22.77;;;7.10;99.90;;;;;;5114270;27;20054;-87
2022/03/15 08:27:07;;;;;;;44.25;22.92;;;6.60;99.90;;;;;;5148785;27;20113;-86
2022/03/15 08:29:32;;;;;;;44.17;23.48;;;7.20;99.90;;;;;;5134365;27;20122;-88
2022/03/15 08:31:58;;;;;;;44.28;22.42;;;7.30;99.90;;;;;;5113235;27;20050;-87
2022/03/15 08:34:24;;;;;;;45.40;22.75;;;7.80;99.90;;;;;;5128443;27;20047;-87
2022/03/15 08:36:53;;;;;;;40.38;22.17;;;6.90;99.90;;;;;;5112130;27;20070;-86
2022/03/15 08:39:23;;;;;;;45.95;24.08;;;7.70;99.90;;;;;;5123703;27;20081;-86
2022/03/15 08:41:51;;;;;;;43.42;23.17;;;8.00;99.90;;;;;;5124517;27;20043;-87
2022/03/15 08:44:20;;;;;;;49.45;23.35;;;7.10;99.90;;;;;;5129159;27;20420;-87
2022/03/15 08:46:47;;;;;;;42.67;23.17;;;8.00;99.90;;;;;;5109740;27;20031;-87
2022/03/15 08:49:17;;;;;;;45.30;22.33;;;7.30;99.90;;;;;;5110923;27;20392;-87
2022/03/15 08:51:44;;;;;;;40.78;21.95;;;7.90;99.90;;;;;;5127450;27;20089;-87
2022/03/15 08:54:11;;;;;;;42.25;21.90;;;7.50;99.90;;;;;;5144023;27;20445;-86
2022/03/15 08:56:40;;;;;;;44.15;21.08;;;8.20;99.90;;;;;;5105637;27;20480;-85
2022/03/15 08:59:06;;;;;;;42.15;22.17;;;7.60;99.90;;;;;;5112212;27;20034;-86
2022/03/15 09:01:32;;;;;;;39.20;21.33;;;7.60;99.90;;;;;;5123865;27;20038;-86
2022/03/15 09:03:58;;;;;;;48.53;22.17;;;7.70;99.90;;;;;;5140645;27;20042;-86
2022/03/15 09:06:23;;;;;;;45.13;22.40;;;7.80;99.90;;;;;;5141424;27;20070;-87
2022/03/15 09:08:49;;;;;;;37.38;22.20;;;8.00;99.90;;;;;;5125828;27;20046;-87
2022/03/15 09:11:15;;;;;;;40.78;22.30;;;8.00;99.90;;;;;;5105717;27;20559;-86
2022/03/15 09:13:42;;;;;;;40.42;21.73;;;8.10;99.90;;;;;;5105510;27;20081;-87
2022/03/15 09:16:12;;;;;;;39.20;21.25;;;8.20;99.90;;;;;;5121875;27;20038;-86
2022/03/15 09:18:39;;;;;;;42.00;21.80;;;8.20;99.90;;;;;;5116610;27;20115;-86
2022/03/15 09:21:06;;;;;;;39.97;23.08;;;8.30;99.90;;;;;;5105053;27;20052;-86
2022/03/15 09:23:33;;;;;;;39.20;21.95;;;8.40;99.90;;;;;;5106235;27;20749;-86
2022/03/15 09:26:01;;;;;;;39.20;20.38;;;8.40;99.90;;;;;;5093051;27;20758;-87
2022/03/15 09:28:27;;;;;;;38.10;20.67;;;8.50;99.90;;;;;;5121713;27;20071;-88
2022/03/15 09:30:53;;;;;;;35.55;19.52;;;9.00;99.90;;;;;;5106043;27;20077;-86
2022/03/15 09:33:19;;;;;;;40.67;20.50;;;8.50;99.90;;;;;;5103423;27;20407;-86
2022/03/15 09:35:45;;;;;;;34.67;21.17;;;8.60;99.90;;;;;;5087036;28;20043;-87
2022/03/15 09:38:11;;;;;;;36.65;21.00;;;8.70;99.90;;;;;;5120863;27;20060;-86
2022/03/15 09:40:38;;;;;;;40.00;20.88;;;8.70;99.90;;;;;;5100630;27;20031;-86
2022/03/15 09:43:08;;;;;;;40.05;21.02;;;8.70;99.90;;;;;;5087512;27;20685;-86
2022/03/15 09:45:35;;;;;;;35.75;20.25;;;8.70;99.90;;;;;;5101897;27;20045;-87
2022/03/15 09:48:13;;;;;;;40.05;21.63;;;8.70;99.90;;;;;;5103396;27;20075;-87
2022/03/15 09:50:40;;;;;;;34.90;20.52;;;8.80;99.90;;;;;;5121231;27;20035;-86
2022/03/15 09:53:06;;;;;;;40.45;20.45;;;8.80;99.90;;;;;;5084528;27;20055;-86
2022/03/15 09:55:32;;;;;;;38.63;19.75;;;8.90;99.90;;;;;;5105750;27;20474;-86
2022/03/15 09:57:58;;;;;;;34.53;20.05;;;8.90;99.90;;;;;;5089183;28;20050;-86
2022/03/15 10:00:24;;;;;;;34.08;20.85;;;9.00;99.90;;;;;;5106249;27;20548;-87
2022/03/15 10:02:50;;;;;;;35.17;19.58;;;9.70;99.90;;;;;;5085893;28;20035;-86
2022/03/15 10:05:16;;;;;;;31.77;18.27;;;9.00;99.90;;;;;;5102652;27;20404;-86
2022/03/15 10:07:42;;;;;;;32.75;18.75;;;9.30;99.90;;;;;;5120709;27;20179;-86
2022/03/15 10:10:11;;;;;;;34.20;18.80;;;9.20;99.90;;;;;;5085603;27;20153;-86
2022/03/15 10:12:37;;;;;;;33.30;19.67;;;9.70;99.90;;;;;;5119095;27;20034;-87
2022/03/15 10:15:19;;;;;;;34.17;19.33;;;9.80;99.90;;;;;;5100340;27;20036;-85
2022/03/15 10:17:52;;;;;;;33.20;19.05;;;9.30;99.90;;;;;;5080620;27;20047;-86
2022/03/15 10:20:19;;;;;;;32.80;18.58;;;9.30;99.90;;;;;;5105372;27;20542;-87
2022/03/15 10:22:54;;;;;;;36.08;19.20;;;9.40;99.90;;;;;;5118260;27;20039;-86
2022/03/15 10:25:22;;;;;;;31.50;18.15;;;10.00;99.90;;;;;;5100104;27;20077;-86
2022/03/15 10:28:02;;;;;;;31.20;17.13;;;9.80;99.90;;;;;;5112402;27;20047;-85
2022/03/15 10:30:30;;;;;;;30.30;17.65;;;9.50;99.90;;;;;;5117670;27;20039;-86
2022/03/15 10:32:57;;;;;;;34.08;16.98;;;9.50;99.90;;;;;;5115639;27;21021;-87
2022/03/15 10:35:25;;;;;;;29.85;17.67;;;9.50;99.90;;;;;;5134246;27;20060;-86
2022/03/15 10:37:52;;;;;;;31.35;18.55;;;9.50;99.90;;;;;;5137557;27;20103;-86
2022/03/15 10:40:30;;;;;;;31.83;18.90;;;9.50;99.90;;;;;;5103197;27;20481;-86
2022/03/15 10:43:06;;;;;;;37.95;19.73;;;9.50;99.90;;;;;;5103605;27;20066;-86
2022/03/15 10:45:32;;;;;;;31.23;18.52;;;9.50;99.90;;;;;;5101203;27;20054;-85
2022/03/15 10:47:58;;;;;;;33.25;18.15;;;9.50;99.90;;;;;;5139341;27;20043;-86
2022/03/15 10:50:24;;;;;;;30.25;18.20;;;10.20;99.90;;;;;;5122361;27;20042;-86
2022/03/15 10:52:51;;;;;;;35.20;19.02;;;9.50;99.90;;;;;;5141972;27;20043;-87
2022/03/15 10:55:23;;;;;;;27.75;18.20;;;9.40;99.90;;;;;;5120499;27;20049;-86
2022/03/15 10:58:00;;;;;;;35.40;18.17;;;9.40;99.90;;;;;;5130689;27;20119;-88
2022/03/15 11:00:35;;;;;;;30.40;18.92;;;9.40;99.90;;;;;;5128671;27;20055;-89
2022/03/15 11:03:05;;;;;;;31.92;18.45;;;9.30;99.90;;;;;;5131920;27;20063;-86
2022/03/15 11:05:39;;;;;;;31.42;18.27;;;9.30;99.90;;;;;;5137617;27;20039;-88
2022/03/15 11:08:10;;;;;;;33.10;17.75;;;9.60;99.90;;;;;;5133145;27;20038;-87
2022/03/15 11:10:37;;;;;;;;;;;9.30;99.90;;;;;;5136163;27;20054;-86
2022/03/15 11:13:11;;;;;;;29.92;16.45;;;9.30;99.90;;;;;;5143597;27;19976;-87
2022/03/15 11:15:53;;;;;;;30.15;16.92;;;9.20;99.90;;;;;;5129521;27;20038;-87
2022/03/15 11:18:19;;;;;;;30.08;15.63;;;9.20;99.90;;;;;;5126193;27;20047;-87
2022/03/15 11:20:50;;;;;;;26.73;15.60;;;9.10;99.90;;;;;;5108696;27;20403;-85
2022/03/15 11:23:18;;;;;;;28.05;14.88;;;9.10;99.90;;;;;;5118429;27;20043;-90
2022/03/15 11:26:00;;;;;;;25.30;14.30;;;9.30;99.90;;;;;;5123066;27;20049;-86
2022/03/15 11:28:28;;;;;;;28.17;14.02;;;9.00;99.90;;;;;;5138239;27;20039;-86
2022/03/15 11:30:56;;;;;;;24.40;13.63;;;9.00;99.90;;;;;;5142060;27;20172;-85
2022/03/15 11:33:23;;;;;;;25.20;13.07;;;9.20;99.90;;;;;;5109279;27;20585;-86
2022/03/15 11:35:50;;;;;;;23.52;12.45;;;8.90;99.90;;;;;;5126806;27;20039;-85
2022/03/15 11:38:15;;;;;;;30.08;13.90;;;8.90;99.90;;;;;;5128100;27;20034;-86
2022/03/15 11:40:42;;;;;;;24.67;13.02;;;9.30;99.90;;;;;;5106331;27;20491;-85
2022/03/15 11:43:14;;;;;;;20.55;11.50;;;8.90;99.90;;;;;;5107834;27;20035;-85
2022/03/15 11:45:45;;;;;;;27.83;10.45;;;8.90;99.90;;;;;;5106362;27;20042;-84
2022/03/15 11:48:36;;;;;;;23.45;10.65;;;9.30;99.90;;;;;;5145102;27;20037;-84
2022/03/15 11:51:31;;;;;;;22.15;10.13;;;8.90;99.90;;;;;;5122075;27;20046;-84
2022/03/15 11:54:21;;;;;;;19.15;9.48;;;8.90;99.90;;;;;;5137611;27;20403;-83
2022/03/15 11:57:14;;;;;;;23.02;10.70;;;8.90;99.90;;;;;;5121591;27;20047;-83
2022/03/15 11:59:51;;;;;;;25.92;12.93;;;8.80;99.90;;;;;;5143682;27;20113;-83
2022/03/15 12:02:28;;;;;;;23.75;12.43;;;8.90;99.90;;;;;;5140909;27;20043;-83
2022/03/15 12:04:55;;;;;;;27.42;13.75;;;8.80;99.90;;;;;;5118639;27;20074;-83
2022/03/15 12:07:47;;;;;;;26.02;14.27;;;8.90;99.90;;;;;;5122299;27;20478;-83
2022/03/15 12:10:26;;;;;;;26.75;15.82;;;9.00;99.90;;;;;;5123320;27;20042;-83
2022/03/15 12:13:04;;;;;;;32.28;16.13;;;9.00;99.90;;;;;;5119548;27;20050;-84
2022/03/15 12:15:38;;;;;;;28.45;16.88;;;9.00;99.90;;;;;;5125155;27;20579;-84
2022/03/15 12:21:02;;;;;;;28.58;15.13;;;9.30;99.90;;;;;;5142187;27;20049;-85
2022/03/15 12:23:50;;;;;;;31.35;15.45;;;9.40;99.90;;;;;;5123417;27;20399;-86
2022/03/15 12:26:22;;;;;;;24.00;14.38;;;9.40;99.90;;;;;;5108753;27;20034;-85
2022/03/15 12:28:58;;;;;;;29.13;15.63;;;9.50;99.90;;;;;;5108035;27;20050;-85
2022/03/15 12:31:36;;;;;;;24.27;13.52;;;9.50;99.90;;;;;;5123619;27;20042;-85
2022/03/15 12:34:05;;;;;;;28.60;14.95;;;9.60;99.90;;;;;;5099265;27;20043;-85
2022/03/15 12:36:39;;;;;;;25.45;14.35;;;9.60;99.90;;;;;;5146491;27;20055;-83
2022/03/15 12:39:12;;;;;;;25.38;14.40;;;10.10;99.90;;;;;;5112936;27;20121;-86
2022/03/15 12:41:39;;;;;;;24.00;13.75;;;9.80;99.90;;;;;;5098525;27;20530;-85
2022/03/15 12:44:07;;;;;;;27.05;15.60;;;10.00;99.90;;;;;;5101495;27;20070;-86
2022/03/15 12:46:35;;;;;;;25.95;14.57;;;10.10;99.90;;;;;;5126534;27;20113;-85
2022/03/15 12:49:08;;;;;;;24.80;13.27;;;10.50;99.90;;;;;;5122329;27;20046;-86
2022/03/15 12:51:43;;;;;;;24.20;14.82;;;11.00;99.90;;;;;;5137153;27;20410;-84
2022/03/15 12:54:13;;;;;;;28.27;13.63;;;10.80;99.90;;;;;;5141188;27;20039;-84
2022/03/15 12:56:44;;;;;;;25.80;12.23;;;10.80;99.90;;;;;;5115736;27;20129;-85
2022/03/15 12:59:24;;;;;;;24.17;11.35;;;10.90;99.90;;;;;;5102274;27;20368;-84